createdAt,value
2023-02-02T00:00:28.427Z,8.80
2023-02-02T00:02:55.194Z,8.80
2023-02-02T00:05:22.290Z,8.80
2023-02-02T00:07:49.199Z,8.80
2023-02-02T00:10:16.249Z,8.80
2023-02-02T00:12:42.969Z,8.70
2023-02-02T00:15:11.138Z,8.70
2023-02-02T00:17:37.839Z,8.70
2023-02-02T00:20:04.782Z,8.70
2023-02-02T00:22:31.464Z,8.70
2023-02-02T00:24:58.172Z,8.70
2023-02-02T00:27:24.961Z,8.70
2023-02-02T00:29:53.709Z,8.80
2023-02-02T00:32:20.691Z,8.70
2023-02-02T00:34:47.475Z,8.70
2023-02-02T00:37:14.277Z,8.80
2023-02-02T00:39:41.025Z,8.70
2023-02-02T00:42:11.307Z,8.80
2023-02-02T00:44:56.477Z,8.80
2023-02-02T00:47:23.310Z,8.80
2023-02-02T00:49:50.060Z,8.80
2023-02-02T00:52:16.785Z,8.80
2023-02-02T00:54:43.510Z,8.70
2023-02-02T00:57:14.360Z,8.70
2023-02-02T00:59:41.945Z,8.70
2023-02-02T01:02:11.119Z,8.70
2023-02-02T01:04:38.044Z,8.70
2023-02-02T01:07:05.935Z,8.70
2023-02-02T01:09:32.662Z,8.70
2023-02-02T01:11:59.404Z,8.70
2023-02-02T01:14:26.301Z,8.70
2023-02-02T01:16:53.051Z,8.70
2023-02-02T01:19:20.013Z,8.70
2023-02-02T01:21:46.822Z,8.70
2023-02-02T01:24:13.502Z,8.70
2023-02-02T01:26:40.344Z,8.70
2023-02-02T01:29:07.162Z,8.70
2023-02-02T01:31:33.931Z,8.70
2023-02-02T01:34:00.696Z,8.70
2023-02-02T01:36:27.488Z,8.70
2023-02-02T01:38:54.801Z,8.60
2023-02-02T01:41:24.730Z,8.60
2023-02-02T01:44:03.921Z,8.70
2023-02-02T01:46:35.968Z,8.60
2023-02-02T01:49:02.625Z,8.60
2023-02-02T01:51:42.454Z,8.60
2023-02-02T01:54:13.964Z,8.60
2023-02-02T01:57:00.758Z,8.60
2023-02-02T01:59:30.302Z,8.60
2023-02-02T02:01:57.788Z,8.60
2023-02-02T02:04:26.859Z,8.50
2023-02-02T02:06:53.954Z,8.50
2023-02-02T02:09:21.407Z,8.60
2023-02-02T02:11:48.516Z,8.60
2023-02-02T02:14:35.254Z,8.60
2023-02-02T02:17:02.210Z,8.60
2023-02-02T02:20:18.592Z,8.50
2023-02-02T02:23:19.246Z,8.60
2023-02-02T02:26:07.482Z,8.50
2023-02-02T02:29:12.253Z,8.50
2023-02-02T02:32:04.310Z,8.50
2023-02-02T02:35:03.336Z,8.50
2023-02-02T02:37:39.721Z,8.50
2023-02-02T02:40:25.399Z,8.50
2023-02-02T02:43:10.426Z,8.40
2023-02-02T02:45:38.896Z,8.40
2023-02-02T02:48:05.679Z,8.40
2023-02-02T02:50:32.544Z,8.50
2023-02-02T02:53:23.616Z,8.60
2023-02-02T02:56:06.711Z,8.50
2023-02-02T02:58:58.789Z,8.50
2023-02-02T03:02:00.821Z,8.50
2023-02-02T03:04:49.233Z,8.50
2023-02-02T03:07:42.208Z,8.40
2023-02-02T03:10:13.340Z,8.50
2023-02-02T03:12:51.221Z,8.50
2023-02-02T03:15:19.159Z,8.50
2023-02-02T03:17:50.849Z,8.50
2023-02-02T03:20:17.962Z,8.50
2023-02-02T03:22:44.871Z,8.60
2023-02-02T03:25:11.615Z,8.50
2023-02-02T03:27:39.377Z,8.50
2023-02-02T03:30:09.171Z,8.50
2023-02-02T03:32:36.751Z,8.50
2023-02-02T03:35:04.178Z,8.50
2023-02-02T03:37:30.897Z,8.50
2023-02-02T03:39:57.668Z,8.50
2023-02-02T03:42:24.382Z,8.50
2023-02-02T03:44:51.160Z,8.60
2023-02-02T03:47:17.880Z,8.50
2023-02-02T03:49:44.581Z,8.60
2023-02-02T03:52:11.323Z,8.50
2023-02-02T03:54:38.017Z,8.50
2023-02-02T03:57:04.773Z,8.50
2023-02-02T03:59:31.494Z,8.60
2023-02-02T04:01:58.240Z,8.60
2023-02-02T04:04:25.078Z,8.60
2023-02-02T04:06:51.819Z,8.60
2023-02-02T04:09:18.615Z,8.60
2023-02-02T04:11:45.295Z,8.60
2023-02-02T04:14:12.108Z,8.60
2023-02-02T04:16:38.916Z,8.60
2023-02-02T04:19:05.624Z,8.70
2023-02-02T04:21:32.349Z,8.60
2023-02-02T04:24:00.646Z,8.70
2023-02-02T04:26:27.538Z,8.60
2023-02-02T04:28:54.431Z,8.60
2023-02-02T04:31:21.203Z,8.60
2023-02-02T04:33:47.916Z,8.70
2023-02-02T04:36:14.853Z,8.60
2023-02-02T04:38:41.638Z,8.60
2023-02-02T04:41:11.081Z,8.60
2023-02-02T04:43:38.980Z,8.60
2023-02-02T04:46:05.859Z,8.60
2023-02-02T04:48:32.713Z,8.60
2023-02-02T04:51:07.192Z,8.60
2023-02-02T04:53:34.285Z,8.60
2023-02-02T04:56:09.690Z,8.60
2023-02-02T04:58:36.498Z,8.60
2023-02-02T05:01:12.783Z,8.60
2023-02-02T05:03:39.717Z,8.50
2023-02-02T05:06:06.639Z,8.50
2023-02-02T05:08:33.866Z,8.60
2023-02-02T05:11:00.656Z,8.60
2023-02-02T05:13:27.328Z,8.60
2023-02-02T05:15:54.517Z,8.50
2023-02-02T05:18:22.126Z,8.50
2023-02-02T05:20:48.863Z,8.60
2023-02-02T05:23:15.569Z,8.60
2023-02-02T05:25:42.315Z,8.60
2023-02-02T05:28:09.144Z,8.60
2023-02-02T05:30:38.467Z,8.60
2023-02-02T05:33:05.270Z,8.60
2023-02-02T05:35:31.981Z,8.60
2023-02-02T05:37:59.370Z,8.60
2023-02-02T05:40:26.119Z,8.60
2023-02-02T05:42:52.853Z,8.60
2023-02-02T05:45:19.615Z,8.70
2023-02-02T05:47:46.406Z,8.70
2023-02-02T05:50:13.374Z,8.60
2023-02-02T05:52:41.298Z,8.60
2023-02-02T05:55:08.342Z,8.60
2023-02-02T05:57:35.194Z,8.70
2023-02-02T06:00:02.121Z,8.70
2023-02-02T06:02:28.909Z,8.60
2023-02-02T06:04:55.601Z,8.60
2023-02-02T06:07:22.422Z,8.60
2023-02-02T06:09:49.173Z,8.60
2023-02-02T06:12:15.861Z,8.60
2023-02-02T06:14:42.562Z,8.50
2023-02-02T06:17:09.305Z,8.60
2023-02-02T06:19:36.044Z,8.60
2023-02-02T06:22:03.079Z,8.60
2023-02-02T06:24:29.782Z,8.60
2023-02-02T06:26:56.658Z,8.60
2023-02-02T06:29:26.477Z,8.50
2023-02-02T06:31:53.362Z,8.50
2023-02-02T06:34:20.423Z,8.50
2023-02-02T06:36:47.180Z,8.50
2023-02-02T06:39:13.993Z,8.50
2023-02-02T06:41:40.930Z,8.50
2023-02-02T06:44:07.821Z,8.50
2023-02-02T06:46:34.561Z,8.60
2023-02-02T06:49:01.309Z,8.50
2023-02-02T06:51:28.035Z,8.60
2023-02-02T06:53:54.759Z,8.50
2023-02-02T06:56:22.880Z,8.60
2023-02-02T06:58:49.783Z,8.60
2023-02-02T07:01:16.583Z,8.50
2023-02-02T07:03:43.540Z,8.60
2023-02-02T07:06:12.385Z,8.60
2023-02-02T07:08:39.137Z,8.60
2023-02-02T07:11:15.906Z,8.50
2023-02-02T07:13:47.649Z,8.50
2023-02-02T07:16:16.700Z,8.50
2023-02-02T07:18:44.069Z,8.50
2023-02-02T07:21:23.507Z,8.50
2023-02-02T07:23:50.821Z,8.40
2023-02-02T07:26:19.338Z,8.50
2023-02-02T07:28:47.175Z,8.40
2023-02-02T07:31:16.873Z,8.50
2023-02-02T07:33:45.334Z,8.60
2023-02-02T07:36:16.175Z,8.50
2023-02-02T07:38:44.332Z,8.40
2023-02-02T07:41:11.945Z,8.50
2023-02-02T07:43:39.231Z,8.50
2023-02-02T07:46:10.256Z,8.30
2023-02-02T07:48:37.626Z,8.40
2023-02-02T07:51:07.348Z,8.40
2023-02-02T07:53:35.517Z,8.40
2023-02-02T07:56:16.561Z,8.40
2023-02-02T07:58:43.941Z,8.30
2023-02-02T08:01:13.011Z,8.40
2023-02-02T08:03:40.733Z,8.40
2023-02-02T08:06:14.864Z,8.50
2023-02-02T08:08:41.736Z,8.50
2023-02-02T08:11:10.352Z,8.40
2023-02-02T08:13:37.355Z,8.40
2023-02-02T08:16:04.836Z,8.50
2023-02-02T08:18:31.650Z,8.50
2023-02-02T08:20:59.864Z,8.50
2023-02-02T08:23:27.804Z,8.50
2023-02-02T08:26:04.856Z,8.60
2023-02-02T08:28:31.743Z,8.60
2023-02-02T08:31:04.830Z,8.60
2023-02-02T08:33:31.567Z,8.70
2023-02-02T08:35:58.522Z,8.70
2023-02-02T08:38:25.417Z,8.60
2023-02-02T08:40:52.597Z,8.70
2023-02-02T08:43:19.395Z,8.70
2023-02-02T08:46:02.037Z,8.60
2023-02-02T08:48:31.525Z,8.70
2023-02-02T08:50:59.713Z,8.70
2023-02-02T08:53:27.532Z,8.70
2023-02-02T08:56:06.724Z,8.70
2023-02-02T08:58:34.451Z,8.70
2023-02-02T09:01:06.047Z,8.80
2023-02-02T09:03:33.041Z,8.80
2023-02-02T09:06:08.663Z,8.80
2023-02-02T09:08:35.819Z,8.80
2023-02-02T09:11:06.975Z,8.80
2023-02-02T09:13:34.240Z,8.80
2023-02-02T09:16:03.800Z,8.70
2023-02-02T09:18:31.027Z,8.80
2023-02-02T09:21:03.308Z,8.80
2023-02-02T09:23:31.638Z,8.80
2023-02-02T09:26:08.311Z,8.90
2023-02-02T09:28:35.060Z,9.00
2023-02-02T09:31:02.527Z,9.10
2023-02-02T09:33:29.413Z,9.10
2023-02-02T09:35:56.160Z,9.20
2023-02-02T09:38:22.935Z,9.20
2023-02-02T09:40:49.727Z,9.30
2023-02-02T09:43:22.270Z,9.20
2023-02-02T09:46:00.225Z,9.30
2023-02-02T09:48:38.943Z,9.20
2023-02-02T09:51:15.743Z,9.20
2023-02-02T09:53:56.760Z,9.30
2023-02-02T09:56:54.564Z,9.30
2023-02-02T09:59:25.650Z,9.20
2023-02-02T10:02:01.361Z,9.10
2023-02-02T10:04:40.373Z,9.10
2023-02-02T10:07:14.050Z,9.20
2023-02-02T10:09:58.980Z,9.20
2023-02-02T10:12:47.098Z,9.20
2023-02-02T10:15:23.060Z,9.30
2023-02-02T10:18:06.046Z,9.30
2023-02-02T10:20:51.330Z,9.30
2023-02-02T10:23:37.624Z,9.30
2023-02-02T10:26:26.536Z,9.40
2023-02-02T10:29:17.408Z,9.40
2023-02-02T10:31:59.210Z,9.40
2023-02-02T10:34:57.703Z,9.40
2023-02-02T10:37:58.257Z,9.50
2023-02-02T10:40:49.275Z,9.50
2023-02-02T10:43:46.501Z,9.50
2023-02-02T10:46:24.792Z,9.50
2023-02-02T10:49:14.183Z,9.60
2023-02-02T10:51:41.522Z,9.50
2023-02-02T10:54:36.159Z,9.60
2023-02-02T10:57:10.783Z,9.50
2023-02-02T10:59:53.476Z,9.40
2023-02-02T11:02:21.431Z,9.50
2023-02-02T11:05:07.230Z,9.50
2023-02-02T11:07:34.001Z,9.50
2023-02-02T11:10:00.708Z,9.50
2023-02-02T11:12:36.863Z,9.50
2023-02-02T11:15:22.236Z,9.50
2023-02-02T11:17:49.359Z,9.40
2023-02-02T11:20:25.759Z,9.50
2023-02-02T11:23:05.026Z,9.60
2023-02-02T11:25:37.838Z,9.50
2023-02-02T11:28:24.885Z,9.50
2023-02-02T11:30:53.328Z,9.60
2023-02-02T11:33:26.345Z,9.60
2023-02-02T11:35:58.660Z,9.70
2023-02-02T11:38:27.393Z,9.60
2023-02-02T11:41:05.313Z,9.60
2023-02-02T11:43:47.550Z,9.70
2023-02-02T11:46:24.363Z,9.60
2023-02-02T11:49:08.416Z,9.60
2023-02-02T11:51:35.625Z,9.60
2023-02-02T11:54:06.783Z,9.60
2023-02-02T11:56:36.530Z,9.60
2023-02-02T11:59:04.207Z,9.60
2023-02-02T12:01:35.579Z,9.50
2023-02-02T12:04:21.370Z,9.50
2023-02-02T12:06:48.159Z,9.60
2023-02-02T12:09:19.305Z,9.60
2023-02-02T12:12:18.717Z,9.40
2023-02-02T12:15:44.236Z,9.50
2023-02-02T12:18:48.101Z,9.50
2023-02-02T12:21:47.708Z,9.50
2023-02-02T12:24:34.745Z,9.60
2023-02-02T12:27:18.851Z,9.50
2023-02-02T12:30:05.213Z,9.50
2023-02-02T12:32:58.976Z,9.50
2023-02-02T12:35:50.368Z,9.60
2023-02-02T12:38:36.554Z,9.50
2023-02-02T12:41:11.992Z,9.60
2023-02-02T12:43:39.049Z,9.60
2023-02-02T12:46:17.388Z,9.70
2023-02-02T12:48:51.250Z,9.60
2023-02-02T12:51:35.458Z,9.60
2023-02-02T12:54:49.681Z,9.60
2023-02-02T12:57:28.151Z,9.60
2023-02-02T13:00:06.608Z,9.60
2023-02-02T13:02:52.952Z,9.60
2023-02-02T13:05:44.445Z,9.50
2023-02-02T13:08:21.634Z,9.30
2023-02-02T13:10:54.040Z,9.30
2023-02-02T13:13:30.218Z,9.20
2023-02-02T13:16:06.120Z,9.20
2023-02-02T13:18:48.366Z,9.30
2023-02-02T13:21:19.382Z,9.30
2023-02-02T13:23:52.467Z,9.20
2023-02-02T13:26:26.933Z,9.10
2023-02-02T13:29:07.471Z,9.10
2023-02-02T13:31:53.797Z,9.10
2023-02-02T13:34:46.056Z,9.10
2023-02-02T13:37:27.455Z,8.90
2023-02-02T13:40:00.832Z,9.00
2023-02-02T13:42:43.531Z,9.00
2023-02-02T13:45:26.091Z,9.00
2023-02-02T13:48:01.941Z,9.00
2023-02-02T13:50:31.524Z,9.10
2023-02-02T13:53:35.611Z,9.00
2023-02-02T13:56:20.002Z,9.10
2023-02-02T13:59:04.495Z,9.00
2023-02-02T14:01:32.135Z,9.00
2023-02-02T14:04:00.714Z,9.00
2023-02-02T14:06:28.626Z,9.00
2023-02-02T14:09:03.272Z,9.00
2023-02-02T14:11:42.554Z,9.00
2023-02-02T14:14:32.406Z,9.00
2023-02-02T14:17:01.709Z,9.10
2023-02-02T14:19:31.140Z,9.00
2023-02-02T14:22:09.813Z,9.10
2023-02-02T14:24:36.589Z,9.00
2023-02-02T14:27:23.405Z,8.90
2023-02-02T14:29:50.137Z,8.90
2023-02-02T14:32:29.123Z,8.90
2023-02-02T14:35:09.091Z,8.80
2023-02-02T14:37:49.323Z,8.80
2023-02-02T14:40:15.997Z,8.70
2023-02-02T14:43:10.171Z,8.60
2023-02-02T14:46:01.166Z,8.60
2023-02-02T14:48:27.860Z,8.60
2023-02-02T14:51:01.084Z,8.70
2023-02-02T14:53:37.285Z,8.60
2023-02-02T14:56:04.188Z,8.70
2023-02-02T14:58:42.839Z,8.70
2023-02-02T15:01:22.843Z,8.60
2023-02-02T15:03:57.349Z,8.70
2023-02-02T15:06:34.564Z,8.70
2023-02-02T15:09:20.102Z,8.70
2023-02-02T15:12:01.100Z,8.60
2023-02-02T15:14:56.856Z,8.60
2023-02-02T15:17:42.125Z,8.50
2023-02-02T15:20:21.209Z,8.60
2023-02-02T15:22:48.036Z,8.60
2023-02-02T15:25:51.463Z,8.60
2023-02-02T15:28:35.642Z,8.80
2023-02-02T15:31:11.235Z,8.70
2023-02-02T15:33:41.670Z,8.70
2023-02-02T15:36:28.394Z,8.70
2023-02-02T15:38:59.347Z,8.70
2023-02-02T15:41:37.847Z,8.70
2023-02-02T15:44:19.125Z,8.70
2023-02-02T15:46:46.743Z,8.50
2023-02-02T15:49:35.793Z,8.60
2023-02-02T15:52:21.155Z,8.70
2023-02-02T15:54:59.014Z,8.80
2023-02-02T15:57:34.222Z,8.60
2023-02-02T16:00:22.708Z,8.60
2023-02-02T16:02:53.674Z,8.70
2023-02-02T16:05:26.181Z,8.60
2023-02-02T16:08:05.009Z,8.60
2023-02-02T16:10:33.609Z,8.60
2023-02-02T16:13:00.370Z,8.60
2023-02-02T16:15:31.694Z,8.50
2023-02-02T16:18:04.037Z,8.50
2023-02-02T16:20:36.219Z,8.50
2023-02-02T16:23:06.188Z,8.60
2023-02-02T16:25:37.029Z,8.50
2023-02-02T16:28:04.511Z,8.60
2023-02-02T16:30:35.620Z,8.60
2023-02-02T16:33:27.791Z,8.60
2023-02-02T16:35:55.090Z,8.50
2023-02-02T16:38:30.593Z,8.50
2023-02-02T16:41:07.757Z,8.60
2023-02-02T16:43:38.053Z,8.60
2023-02-02T16:46:14.727Z,8.60
2023-02-02T16:48:58.256Z,8.60
2023-02-02T16:51:27.839Z,8.60
2023-02-02T16:54:01.933Z,8.60
2023-02-02T16:56:40.870Z,8.60
2023-02-02T16:59:15.907Z,8.60
2023-02-02T17:01:46.804Z,8.60
2023-02-02T17:04:22.032Z,8.60
2023-02-02T17:06:52.943Z,8.60
2023-02-02T17:09:28.634Z,8.70
2023-02-02T17:12:01.892Z,8.60
2023-02-02T17:14:33.724Z,8.60
2023-02-02T17:17:05.739Z,8.60
2023-02-02T17:19:32.688Z,8.60
2023-02-02T17:22:02.555Z,8.60
2023-02-02T17:24:29.841Z,8.60
2023-02-02T17:26:56.781Z,8.70
2023-02-02T17:29:23.659Z,8.70
2023-02-02T17:31:51.959Z,8.70
2023-02-02T17:34:19.212Z,8.70
2023-02-02T17:36:46.009Z,8.70
2023-02-02T17:39:12.870Z,8.70
2023-02-02T17:41:40.192Z,8.70
2023-02-02T17:44:09.260Z,8.70
2023-02-02T17:46:38.374Z,8.80
2023-02-02T17:49:06.763Z,8.70
2023-02-02T17:51:40.859Z,8.80
2023-02-02T17:54:15.343Z,8.80
2023-02-02T17:56:43.763Z,8.80
2023-02-02T17:59:12.217Z,8.80
2023-02-02T18:01:41.656Z,8.80
2023-02-02T18:04:12.121Z,8.80
2023-02-02T18:06:38.965Z,8.80
2023-02-02T18:09:05.819Z,8.80
2023-02-02T18:11:32.652Z,8.80
2023-02-02T18:13:59.362Z,8.90
2023-02-02T18:16:26.087Z,8.80
2023-02-02T18:18:53.703Z,8.80
2023-02-02T18:21:21.304Z,8.80
2023-02-02T18:23:49.213Z,8.80
2023-02-02T18:26:19.702Z,8.80
2023-02-02T18:28:50.157Z,8.80
2023-02-02T18:31:19.774Z,8.90
2023-02-02T18:33:47.363Z,8.90
2023-02-02T18:36:17.780Z,8.90
2023-02-02T18:38:47.727Z,8.90
2023-02-02T18:41:16.239Z,9.00
2023-02-02T18:43:44.164Z,9.00
2023-02-02T18:46:14.103Z,9.00
2023-02-02T18:48:42.170Z,9.00
2023-02-02T18:51:15.620Z,9.10
2023-02-02T18:53:43.789Z,9.10
2023-02-02T18:56:12.897Z,9.00
2023-02-02T18:58:40.237Z,9.00
2023-02-02T19:01:11.582Z,9.10
2023-02-02T19:03:39.493Z,9.10
2023-02-02T19:06:26.152Z,9.10
2023-02-02T19:08:53.174Z,9.00
2023-02-02T19:11:22.342Z,9.10
2023-02-02T19:13:49.367Z,9.10
2023-02-02T19:16:23.815Z,9.10
2023-02-02T19:18:50.938Z,9.10
2023-02-02T19:21:17.825Z,9.20
2023-02-02T19:23:46.067Z,9.20
2023-02-02T19:26:25.885Z,9.20
2023-02-02T19:28:54.609Z,9.20
2023-02-02T19:31:21.404Z,9.10
2023-02-02T19:33:50.519Z,9.10
2023-02-02T19:36:22.493Z,9.10
2023-02-02T19:39:02.077Z,9.10
2023-02-02T19:41:29.861Z,9.10
2023-02-02T19:43:59.600Z,9.10
2023-02-02T19:46:29.452Z,9.10
2023-02-02T19:49:05.497Z,9.10
2023-02-02T19:51:44.312Z,9.00
2023-02-02T19:54:27.873Z,9.00
2023-02-02T19:56:58.540Z,9.00
2023-02-02T19:59:29.706Z,9.00
2023-02-02T20:01:56.556Z,9.00
2023-02-02T20:04:23.760Z,9.00
2023-02-02T20:06:58.993Z,8.90
2023-02-02T20:09:33.417Z,8.90
2023-02-02T20:12:00.504Z,9.00
2023-02-02T20:14:34.505Z,9.00
2023-02-02T20:17:06.707Z,9.00
2023-02-02T20:19:36.887Z,9.00
2023-02-02T20:22:15.723Z,9.00
2023-02-02T20:24:42.451Z,9.00
2023-02-02T20:27:23.987Z,9.00
2023-02-02T20:29:53.051Z,9.00
2023-02-02T20:32:30.248Z,9.00
2023-02-02T20:34:59.081Z,9.10
2023-02-02T20:37:35.821Z,9.10
2023-02-02T20:40:21.453Z,9.10
2023-02-02T20:42:48.471Z,9.10
2023-02-02T20:45:19.140Z,9.00
2023-02-02T20:47:46.288Z,9.10
2023-02-02T20:50:15.593Z,9.00
2023-02-02T20:52:43.119Z,9.10
2023-02-02T20:55:10.684Z,9.10
2023-02-02T20:57:38.598Z,9.10
2023-02-02T21:00:07.778Z,9.10
2023-02-02T21:02:34.937Z,9.10
2023-02-02T21:05:01.800Z,9.10
2023-02-02T21:07:28.692Z,9.20
2023-02-02T21:09:55.637Z,9.20
2023-02-02T21:12:25.456Z,9.20
2023-02-02T21:14:53.977Z,9.20
2023-02-02T21:17:21.077Z,9.30
2023-02-02T21:19:47.880Z,9.20
2023-02-02T21:22:14.790Z,9.20
2023-02-02T21:24:42.544Z,9.20
2023-02-02T21:27:10.030Z,9.20
2023-02-02T21:29:37.086Z,9.20
2023-02-02T21:32:04.335Z,9.30
2023-02-02T21:34:31.681Z,9.30
2023-02-02T21:36:59.095Z,9.20
2023-02-02T21:39:36.772Z,9.30
2023-02-02T21:42:11.746Z,9.20
2023-02-02T21:45:00.267Z,9.20
2023-02-02T21:47:35.226Z,9.30
2023-02-02T21:50:13.744Z,9.30
2023-02-02T21:52:40.541Z,9.30
2023-02-02T21:55:30.946Z,9.30
2023-02-02T21:58:00.316Z,9.30
2023-02-02T22:00:32.336Z,9.30
2023-02-02T22:02:59.914Z,9.30
2023-02-02T22:05:35.068Z,9.30
2023-02-02T22:08:07.961Z,9.30
2023-02-02T22:10:43.165Z,9.30
2023-02-02T22:13:18.168Z,9.20
2023-02-02T22:15:47.417Z,9.20
2023-02-02T22:18:23.224Z,9.20
2023-02-02T22:20:51.839Z,9.20
2023-02-02T22:23:24.692Z,9.20
2023-02-02T22:25:55.217Z,9.20
2023-02-02T22:28:28.156Z,9.20
2023-02-02T22:30:56.580Z,9.10
2023-02-02T22:33:24.298Z,9.20
2023-02-02T22:35:51.080Z,9.10
2023-02-02T22:38:20.399Z,9.10
2023-02-02T22:40:48.678Z,9.20
2023-02-02T22:43:16.662Z,9.20
2023-02-02T22:45:44.487Z,9.10
2023-02-02T22:48:12.308Z,9.10
2023-02-02T22:50:39.379Z,9.20
2023-02-02T22:53:06.361Z,9.20
2023-02-02T22:55:33.376Z,9.20
2023-02-02T22:58:00.153Z,9.20
2023-02-02T23:00:29.689Z,9.10
2023-02-02T23:02:56.870Z,9.20
2023-02-02T23:05:25.102Z,9.20
2023-02-02T23:07:53.464Z,9.20
2023-02-02T23:10:23.274Z,9.20
2023-02-02T23:12:51.529Z,9.20
2023-02-02T23:15:19.276Z,9.20
2023-02-02T23:17:46.178Z,9.20
2023-02-02T23:20:14.687Z,9.20
2023-02-02T23:22:41.554Z,9.20
2023-02-02T23:25:08.664Z,9.20
2023-02-02T23:27:35.409Z,9.20
2023-02-02T23:30:02.247Z,9.10
2023-02-02T23:32:28.985Z,9.20
2023-02-02T23:34:55.696Z,9.10
2023-02-02T23:37:22.432Z,9.20
2023-02-02T23:39:49.186Z,9.10
2023-02-02T23:42:15.938Z,9.10
2023-02-02T23:44:42.731Z,9.10
2023-02-02T23:47:10.011Z,9.10
2023-02-02T23:49:37.443Z,9.20
2023-02-02T23:52:04.374Z,9.20
2023-02-02T23:54:32.066Z,9.10
2023-02-02T23:56:59.130Z,9.10
2023-02-02T23:59:25.834Z,9.10
